createdAt,value
2019-05-09T00:00:59.357Z,77.98
2019-05-09T00:01:59.324Z,77.67
2019-05-09T00:02:59.331Z,78.63
2019-05-09T00:03:59.340Z,78.63
2019-05-09T00:04:59.315Z,80.16
2019-05-09T00:05:59.314Z,80.05
2019-05-09T00:06:59.478Z,80.56
2019-05-09T00:07:59.260Z,79.34
2019-05-09T00:08:59.255Z,80.26
2019-05-09T00:09:59.242Z,80.87
2019-05-09T00:10:59.226Z,80.87
2019-05-09T00:12:03.534Z,80.36
2019-05-09T00:12:59.202Z,80.36
2019-05-09T00:13:59.198Z,80.36
2019-05-09T00:14:59.197Z,80.26
2019-05-09T00:15:59.190Z,80.56
2019-05-09T00:16:59.198Z,80.77
2019-05-09T00:17:59.194Z,80.97
2019-05-09T00:18:59.145Z,80.87
2019-05-09T00:19:59.135Z,81.07
2019-05-09T00:20:59.115Z,81.79
2019-05-09T00:21:59.119Z,81.88
2019-05-09T00:22:59.101Z,82.09
2019-05-09T00:23:59.102Z,81.72
2019-05-09T00:24:59.070Z,81.38
2019-05-09T00:25:59.072Z,82.19
2019-05-09T00:26:59.058Z,82.03
2019-05-09T00:27:59.051Z,82.03
2019-05-09T00:28:59.079Z,82.23
2019-05-09T00:29:59.021Z,81.72
2019-05-09T00:30:59.009Z,81.62
2019-05-09T00:31:59.000Z,81.31
2019-05-09T00:32:58.990Z,81.52
2019-05-09T00:33:58.995Z,81.82
2019-05-09T00:34:59.000Z,82.13
2019-05-09T00:35:58.959Z,82.13
2019-05-09T00:36:58.945Z,82.23
2019-05-09T00:37:58.928Z,82.13
2019-05-09T00:38:58.940Z,82.43
2019-05-09T00:39:59.084Z,82.43
2019-05-09T00:40:59.211Z,82.43
2019-05-09T00:41:58.974Z,82.64
2019-05-09T00:42:58.932Z,82.54
2019-05-09T00:43:58.876Z,82.94
2019-05-09T00:44:58.892Z,81.93
2019-05-09T00:45:58.844Z,82.54
2019-05-09T00:46:58.832Z,82.54
2019-05-09T00:47:58.824Z,82.13
2019-05-09T00:48:58.817Z,83.35
2019-05-09T00:50:05.317Z,83.15
2019-05-09T00:50:58.805Z,83.96
2019-05-09T00:51:58.782Z,83.35
2019-05-09T00:52:58.767Z,82.88
2019-05-09T00:53:58.762Z,82.98
2019-05-09T00:54:58.753Z,84.06
2019-05-09T00:55:58.752Z,83.29
2019-05-09T00:56:58.726Z,83.29
2019-05-09T00:57:58.718Z,81.93
2019-05-09T00:58:58.711Z,82.43
2019-05-09T00:59:58.710Z,82.13
2019-05-09T01:00:58.715Z,83.09
2019-05-09T01:01:58.681Z,82.98
2019-05-09T01:02:58.652Z,82.88
2019-05-09T01:03:58.654Z,82.78
2019-05-09T01:04:58.635Z,82.13
2019-05-09T01:05:58.637Z,81.96
2019-05-09T01:06:58.673Z,82.33
2019-05-09T01:07:58.608Z,82.37
2019-05-09T01:08:58.617Z,82.17
2019-05-09T01:09:58.590Z,82.07
2019-05-09T01:11:09.373Z,82.43
2019-05-09T01:11:59.563Z,81.52
2019-05-09T01:12:58.548Z,80.91
2019-05-09T01:13:58.573Z,81.01
2019-05-09T01:14:58.528Z,80.60
2019-05-09T01:15:58.519Z,80.91
2019-05-09T01:16:58.515Z,80.09
2019-05-09T01:17:58.493Z,80.09
2019-05-09T01:18:58.479Z,79.68
2019-05-09T01:19:58.507Z,79.89
2019-05-09T01:20:58.463Z,79.68
2019-05-09T01:21:58.445Z,78.97
2019-05-09T01:22:58.455Z,78.36
2019-05-09T01:23:58.423Z,79.17
2019-05-09T01:24:58.414Z,80.09
2019-05-09T01:25:58.439Z,80.50
2019-05-09T01:26:58.397Z,81.15
2019-05-09T01:27:58.378Z,82.27
2019-05-09T01:28:58.368Z,81.90
2019-05-09T01:29:58.354Z,83.09
2019-05-09T01:30:58.361Z,83.70
2019-05-09T01:31:58.352Z,83.23
2019-05-09T01:32:58.365Z,83.02
2019-05-09T01:33:58.332Z,82.51
2019-05-09T01:34:58.316Z,82.68
2019-05-09T01:35:58.313Z,83.23
2019-05-09T01:36:58.295Z,83.02
2019-05-09T01:37:58.265Z,83.02
2019-05-09T01:38:58.288Z,82.37
2019-05-09T01:39:58.261Z,82.68
2019-05-09T01:40:58.230Z,83.53
2019-05-09T01:41:58.223Z,82.92
2019-05-09T01:42:58.222Z,83.43
2019-05-09T01:43:58.199Z,83.43
2019-05-09T01:44:58.478Z,84.04
2019-05-09T01:45:58.192Z,83.23
2019-05-09T01:46:58.169Z,83.18
2019-05-09T01:47:58.166Z,83.18
2019-05-09T01:48:58.140Z,83.09
2019-05-09T01:49:58.171Z,83.09
2019-05-09T01:50:58.128Z,83.12
2019-05-09T01:51:58.121Z,82.92
2019-05-09T01:52:58.097Z,82.92
2019-05-09T01:53:58.092Z,82.82
2019-05-09T01:54:58.081Z,82.71
2019-05-09T01:55:58.103Z,83.18
2019-05-09T01:56:58.097Z,83.02
2019-05-09T01:57:58.050Z,82.71
2019-05-09T01:58:58.037Z,83.12
2019-05-09T01:59:58.020Z,83.12
2019-05-09T02:00:58.054Z,82.37
2019-05-09T02:01:58.014Z,82.92
2019-05-09T02:02:58.009Z,82.47
2019-05-09T02:03:58.011Z,82.68
2019-05-09T02:04:57.970Z,82.47
2019-05-09T02:05:57.954Z,82.31
2019-05-09T02:06:57.986Z,82.31
2019-05-09T02:07:57.942Z,82.31
2019-05-09T02:08:57.942Z,82.27
2019-05-09T02:09:57.929Z,82.88
2019-05-09T02:10:57.912Z,82.27
2019-05-09T02:11:57.889Z,82.37
2019-05-09T02:12:57.929Z,82.61
2019-05-09T02:13:57.893Z,82.61
2019-05-09T02:14:57.865Z,82.68
2019-05-09T02:15:57.845Z,82.78
2019-05-09T02:16:57.840Z,82.47
2019-05-09T02:18:01.788Z,82.27
2019-05-09T02:19:00.599Z,82.27
2019-05-09T02:19:57.824Z,82.17
2019-05-09T02:20:57.797Z,81.96
2019-05-09T02:21:57.782Z,82.07
2019-05-09T02:22:57.776Z,81.96
2019-05-09T02:23:57.757Z,82.31
2019-05-09T02:24:57.788Z,82.17
2019-05-09T02:25:57.749Z,82.21
2019-05-09T02:26:57.719Z,82.27
2019-05-09T02:27:57.721Z,81.96
2019-05-09T02:28:57.700Z,81.76
2019-05-09T02:29:57.699Z,82.17
2019-05-09T02:30:57.715Z,82.17
2019-05-09T02:31:57.685Z,81.96
2019-05-09T02:32:57.663Z,82.07
2019-05-09T02:33:57.653Z,82.41
2019-05-09T02:34:57.632Z,82.21
2019-05-09T02:36:01.674Z,82.37
2019-05-09T02:36:58.662Z,82.51
2019-05-09T02:37:58.725Z,82.21
2019-05-09T02:38:59.109Z,82.27
2019-05-09T02:39:59.162Z,82.51
2019-05-09T02:40:59.524Z,82.37
2019-05-09T02:42:04.910Z,82.37
2019-05-09T02:42:59.117Z,82.27
2019-05-09T02:43:58.587Z,82.31
2019-05-09T02:44:59.527Z,82.51
2019-05-09T02:45:59.402Z,82.31
2019-05-09T02:46:58.890Z,82.17
2019-05-09T02:47:59.069Z,81.66
2019-05-09T02:48:59.419Z,81.66
2019-05-09T02:49:58.940Z,81.66
2019-05-09T02:51:00.196Z,81.56
2019-05-09T02:51:59.310Z,81.66
2019-05-09T02:52:59.087Z,81.56
2019-05-09T02:53:58.521Z,81.04
2019-05-09T02:54:58.338Z,81.45
2019-05-09T02:55:58.440Z,81.56
2019-05-09T02:56:58.214Z,81.56
2019-05-09T02:57:59.218Z,81.56
2019-05-09T02:58:58.916Z,81.15
2019-05-09T02:59:59.266Z,81.04
2019-05-09T03:00:59.641Z,80.43
2019-05-09T03:01:58.609Z,80.29
2019-05-09T03:02:59.615Z,80.33
2019-05-09T03:03:58.894Z,80.33
2019-05-09T03:04:58.203Z,80.33
2019-05-09T03:05:59.680Z,80.54
2019-05-09T03:06:59.768Z,80.64
2019-05-09T03:07:58.387Z,80.43
2019-05-09T03:08:59.404Z,80.54
2019-05-09T03:09:58.260Z,80.43
2019-05-09T03:10:59.103Z,80.33
2019-05-09T03:11:58.835Z,80.33
2019-05-09T03:12:59.317Z,79.93
2019-05-09T03:13:58.539Z,80.13
2019-05-09T03:14:58.720Z,79.93
2019-05-09T03:15:58.680Z,80.02
2019-05-09T03:16:58.597Z,80.23
2019-05-09T03:17:59.876Z,80.43
2019-05-09T03:18:58.434Z,80.33
2019-05-09T03:19:58.647Z,79.93
2019-05-09T03:20:58.581Z,80.43
2019-05-09T03:21:58.497Z,80.33
2019-05-09T03:22:58.328Z,80.23
2019-05-09T03:23:59.149Z,80.43
2019-05-09T03:24:58.811Z,80.13
2019-05-09T03:25:58.820Z,80.43
2019-05-09T03:26:59.549Z,80.43
2019-05-09T03:27:58.738Z,80.54
2019-05-09T03:28:59.069Z,80.43
2019-05-09T03:29:58.927Z,80.33
2019-05-09T03:30:59.270Z,80.27
2019-05-09T03:32:00.088Z,80.94
2019-05-09T03:32:59.574Z,80.54
2019-05-09T03:33:59.502Z,80.43
2019-05-09T03:34:58.054Z,80.54
2019-05-09T03:35:57.440Z,80.88
2019-05-09T03:36:58.081Z,81.09
2019-05-09T03:37:57.263Z,81.04
2019-05-09T03:38:57.859Z,80.88
2019-05-09T03:39:58.122Z,80.74
2019-05-09T03:40:58.012Z,81.04
2019-05-09T03:41:57.517Z,80.88
2019-05-09T03:42:57.471Z,81.25
2019-05-09T03:43:58.539Z,80.88
2019-05-09T03:44:58.139Z,81.09
2019-05-09T03:45:58.509Z,80.74
2019-05-09T03:46:58.068Z,81.04
2019-05-09T03:47:58.257Z,81.18
2019-05-09T03:48:58.260Z,81.18
2019-05-09T03:49:58.689Z,81.35
2019-05-09T03:50:57.723Z,81.04
2019-05-09T03:51:58.484Z,81.29
2019-05-09T03:52:57.990Z,81.04
2019-05-09T03:53:57.574Z,81.29
2019-05-09T03:54:57.932Z,81.25
2019-05-09T03:55:57.565Z,81.04
2019-05-09T03:56:57.267Z,81.25
2019-05-09T03:57:58.064Z,80.98
2019-05-09T03:58:57.851Z,81.18
2019-05-09T03:59:57.255Z,81.04
2019-05-09T04:00:58.012Z,81.25
2019-05-09T04:01:58.958Z,81.18
2019-05-09T04:02:58.051Z,81.15
2019-05-09T04:03:58.418Z,81.09
2019-05-09T04:04:57.737Z,81.35
2019-05-09T04:06:02.557Z,81.29
2019-05-09T04:06:58.201Z,81.56
2019-05-09T04:07:58.224Z,81.59
2019-05-09T04:08:58.509Z,81.56
2019-05-09T04:09:58.509Z,81.45
2019-05-09T04:10:58.654Z,81.35
2019-05-09T04:11:59.883Z,81.45
2019-05-09T04:12:59.479Z,81.35
2019-05-09T04:13:58.151Z,81.04
2019-05-09T04:14:58.389Z,81.04
2019-05-09T04:15:58.237Z,81.04
2019-05-09T04:16:57.548Z,81.04
2019-05-09T04:17:57.864Z,80.74
2019-05-09T04:18:58.180Z,80.64
2019-05-09T04:19:57.843Z,80.50
2019-05-09T04:20:57.355Z,80.09
2019-05-09T04:21:57.593Z,80.09
2019-05-09T04:22:59.321Z,79.85
2019-05-09T04:23:58.497Z,79.95
2019-05-09T04:24:57.654Z,79.44
2019-05-09T04:25:58.327Z,78.93
2019-05-09T04:26:57.552Z,79.34
2019-05-09T04:27:58.278Z,78.69
2019-05-09T04:28:57.819Z,78.93
2019-05-09T04:29:57.446Z,78.63
2019-05-09T04:30:58.112Z,78.53
2019-05-09T04:31:57.481Z,78.53
2019-05-09T04:32:58.133Z,78.63
2019-05-09T04:33:57.447Z,79.14
2019-05-09T04:34:57.810Z,78.63
2019-05-09T04:35:57.932Z,79.14
2019-05-09T04:36:57.618Z,78.93
2019-05-09T04:37:58.311Z,78.83
2019-05-09T04:38:57.819Z,78.93
2019-05-09T04:39:59.495Z,79.03
2019-05-09T04:40:58.434Z,78.83
2019-05-09T04:42:03.580Z,78.93
2019-05-09T04:43:10.826Z,79.24
2019-05-09T04:43:57.513Z,78.63
2019-05-09T04:45:02.729Z,78.63
2019-05-09T04:45:57.889Z,78.93
2019-05-09T04:47:00.103Z,78.63
2019-05-09T04:47:57.758Z,78.73
2019-05-09T04:48:59.363Z,79.14
2019-05-09T04:49:58.415Z,79.14
2019-05-09T04:50:59.317Z,78.93
2019-05-09T04:51:58.268Z,78.42
2019-05-09T04:52:57.983Z,78.83
2019-05-09T04:53:58.296Z,79.14
2019-05-09T04:54:57.610Z,79.14
2019-05-09T04:55:58.056Z,79.34
2019-05-09T04:56:57.414Z,79.03
2019-05-09T04:57:57.215Z,79.34
2019-05-09T04:58:58.184Z,79.14
2019-05-09T04:59:57.553Z,78.93
2019-05-09T05:00:57.309Z,78.53
2019-05-09T05:01:58.148Z,78.19
2019-05-09T05:02:57.593Z,78.19
2019-05-09T05:03:57.313Z,77.57
2019-05-09T05:04:58.374Z,77.87
2019-05-09T05:05:58.197Z,77.67
2019-05-09T05:06:57.860Z,77.26
2019-05-09T05:07:57.329Z,77.37
2019-05-09T05:08:58.394Z,76.92
2019-05-09T05:09:57.612Z,76.72
2019-05-09T05:10:58.103Z,76.76
2019-05-09T05:11:58.080Z,77.26
2019-05-09T05:12:57.310Z,77.57
2019-05-09T05:13:58.391Z,77.87
2019-05-09T05:14:57.935Z,78.08
2019-05-09T05:15:57.803Z,77.57
2019-05-09T05:17:05.435Z,77.87
2019-05-09T05:17:58.277Z,77.87
2019-05-09T05:18:58.169Z,78.08
2019-05-09T05:19:57.888Z,78.49
2019-05-09T05:20:57.592Z,78.63
2019-05-09T05:21:55.812Z,78.22
2019-05-09T05:22:57.933Z,78.42
2019-05-09T05:23:57.696Z,77.81
2019-05-09T05:24:59.310Z,78.22
2019-05-09T05:25:57.861Z,78.22
2019-05-09T05:26:57.877Z,78.42
2019-05-09T05:27:58.024Z,78.02
2019-05-09T05:28:57.463Z,78.12
2019-05-09T05:29:58.120Z,78.22
2019-05-09T05:30:58.064Z,77.87
2019-05-09T05:31:57.502Z,78.08
2019-05-09T05:32:57.854Z,77.23
2019-05-09T05:33:57.755Z,76.92
2019-05-09T05:34:57.276Z,77.06
2019-05-09T05:35:57.411Z,76.21
2019-05-09T05:36:58.040Z,76.21
2019-05-09T05:37:57.939Z,76.42
2019-05-09T05:38:55.624Z,76.21
2019-05-09T05:39:55.642Z,76.01
2019-05-09T05:40:57.819Z,76.42
2019-05-09T05:41:57.676Z,76.76
2019-05-09T05:42:58.331Z,76.45
2019-05-09T05:43:57.867Z,76.72
2019-05-09T05:44:55.562Z,76.31
2019-05-09T05:45:55.547Z,76.01
2019-05-09T05:46:55.572Z,76.31
2019-05-09T05:47:57.478Z,76.01
2019-05-09T05:48:57.638Z,76.31
2019-05-09T05:49:57.637Z,75.81
2019-05-09T05:50:57.651Z,75.81
2019-05-09T05:51:57.533Z,75.70
2019-05-09T05:52:57.622Z,75.87
2019-05-09T05:53:57.337Z,75.46
2019-05-09T05:54:55.450Z,74.85
2019-05-09T05:55:57.877Z,75.87
2019-05-09T05:56:57.538Z,74.96
2019-05-09T05:57:57.734Z,74.45
2019-05-09T05:58:57.846Z,74.85
2019-05-09T05:59:55.384Z,75.46
2019-05-09T06:00:55.377Z,75.91
2019-05-09T06:01:55.363Z,75.77
2019-05-09T06:02:55.364Z,75.60
2019-05-09T06:03:55.346Z,75.77
2019-05-09T06:04:57.773Z,74.45
2019-05-09T06:05:55.318Z,75.06
2019-05-09T06:06:55.307Z,75.87
2019-05-09T06:07:57.452Z,75.70
2019-05-09T06:08:57.738Z,75.67
2019-05-09T06:09:57.415Z,75.70
2019-05-09T06:10:57.473Z,75.91
2019-05-09T06:11:57.666Z,75.70
2019-05-09T06:12:57.376Z,75.81
2019-05-09T06:14:00.167Z,75.91
2019-05-09T06:14:58.234Z,75.70
2019-05-09T06:15:55.206Z,75.70
2019-05-09T06:16:55.275Z,75.50
2019-05-09T06:17:57.650Z,75.77
2019-05-09T06:18:55.171Z,75.87
2019-05-09T06:19:55.164Z,74.65
2019-05-09T06:20:55.171Z,74.55
2019-05-09T06:21:57.233Z,74.45
2019-05-09T06:22:55.120Z,74.21
2019-05-09T06:23:55.153Z,73.80
2019-05-09T06:24:55.101Z,73.91
2019-05-09T06:25:55.090Z,73.46
2019-05-09T06:26:55.093Z,72.45
2019-05-09T06:27:55.092Z,72.45
2019-05-09T06:28:55.053Z,72.14
2019-05-09T06:29:55.076Z,72.96
2019-05-09T06:30:55.035Z,72.14
2019-05-09T06:31:55.048Z,72.65
2019-05-09T06:32:55.020Z,72.65
2019-05-09T06:33:57.598Z,72.45
2019-05-09T06:34:54.995Z,71.80
2019-05-09T06:35:54.997Z,70.99
2019-05-09T06:36:58.198Z,71.70
2019-05-09T06:37:54.974Z,70.89
2019-05-09T06:38:55.017Z,70.79
2019-05-09T06:39:54.939Z,70.89
2019-05-09T06:40:54.923Z,70.79
2019-05-09T06:41:57.360Z,70.99
2019-05-09T06:42:55.012Z,70.99
2019-05-09T06:44:12.632Z,71.53
2019-05-09T06:44:58.219Z,71.09
2019-05-09T06:45:57.491Z,71.40
2019-05-09T06:46:54.876Z,69.60
2019-05-09T06:47:54.856Z,70.21
2019-05-09T06:49:17.957Z,70.01
2019-05-09T06:49:57.416Z,70.28
2019-05-09T06:50:54.804Z,70.59
2019-05-09T06:51:54.803Z,70.28
2019-05-09T06:52:54.796Z,70.52
2019-05-09T06:53:54.783Z,70.52
2019-05-09T06:54:54.837Z,70.01
2019-05-09T06:55:54.790Z,70.31
2019-05-09T06:56:54.782Z,70.42
2019-05-09T06:57:54.741Z,70.62
2019-05-09T06:58:54.734Z,70.31
2019-05-09T06:59:54.741Z,70.14
2019-05-09T07:00:54.733Z,69.60
2019-05-09T07:01:54.703Z,69.81
2019-05-09T07:02:57.577Z,69.70
2019-05-09T07:03:57.505Z,69.60
2019-05-09T07:04:54.658Z,69.81
2019-05-09T07:05:54.680Z,69.17
2019-05-09T07:06:54.659Z,68.96
2019-05-09T07:07:54.639Z,68.52
2019-05-09T07:08:54.616Z,68.32
2019-05-09T07:09:54.611Z,66.97
2019-05-09T07:10:55.390Z,67.27
2019-05-09T07:11:54.584Z,66.43
2019-05-09T07:12:54.597Z,66.60
2019-05-09T07:13:54.564Z,66.50
2019-05-09T07:14:54.544Z,65.18
2019-05-09T07:15:54.540Z,65.45
2019-05-09T07:16:54.868Z,65.25
2019-05-09T07:17:54.557Z,65.36
2019-05-09T07:18:54.518Z,65.45
2019-05-09T07:19:54.481Z,64.75
2019-05-09T07:20:54.489Z,65.45
2019-05-09T07:21:54.855Z,65.66
2019-05-09T07:22:54.494Z,64.95
2019-05-09T07:23:54.463Z,64.85
2019-05-09T07:24:57.908Z,64.75
2019-05-09T07:25:55.422Z,64.78
2019-05-09T07:26:54.470Z,65.39
2019-05-09T07:27:54.413Z,65.69
2019-05-09T07:28:54.410Z,65.92
2019-05-09T07:29:54.385Z,66.23
2019-05-09T07:30:54.396Z,66.13
2019-05-09T07:31:54.380Z,66.53
2019-05-09T07:32:54.409Z,65.59
2019-05-09T07:33:54.396Z,65.59
2019-05-09T07:34:54.323Z,65.05
2019-05-09T07:35:54.321Z,63.96
2019-05-09T07:36:54.297Z,63.56
2019-05-09T07:37:54.290Z,65.08
2019-05-09T07:38:54.296Z,64.98
2019-05-09T07:39:54.311Z,64.34
2019-05-09T07:40:54.272Z,64.44
2019-05-09T07:41:54.280Z,63.76
2019-05-09T07:42:54.285Z,64.40
2019-05-09T07:43:54.252Z,64.78
2019-05-09T07:44:54.239Z,64.88
2019-05-09T07:45:54.244Z,64.37
2019-05-09T07:46:54.927Z,64.07
2019-05-09T07:47:54.197Z,64.27
2019-05-09T07:48:54.166Z,63.76
2019-05-09T07:49:54.160Z,63.86
2019-05-09T07:50:54.211Z,64.98
2019-05-09T07:51:54.181Z,65.18
2019-05-09T07:52:54.137Z,64.75
2019-05-09T07:53:54.117Z,64.24
2019-05-09T07:54:54.180Z,63.96
2019-05-09T07:55:54.099Z,64.24
2019-05-09T07:56:54.132Z,64.14
2019-05-09T07:57:55.550Z,63.40
2019-05-09T07:58:54.071Z,62.38
2019-05-09T07:59:54.046Z,63.23
2019-05-09T08:00:54.038Z,62.92
2019-05-09T08:01:54.032Z,62.79
2019-05-09T08:02:54.442Z,63.30
2019-05-09T08:03:54.432Z,63.27
2019-05-09T08:04:54.024Z,62.26
2019-05-09T08:05:53.979Z,61.41
2019-05-09T08:06:53.979Z,61.21
2019-05-09T08:07:53.978Z,61.01
2019-05-09T08:08:53.994Z,60.91
2019-05-09T08:09:54.021Z,60.41
2019-05-09T08:10:53.931Z,60.91
2019-05-09T08:11:53.931Z,60.38
2019-05-09T08:12:53.921Z,60.71
2019-05-09T08:13:54.078Z,60.61
2019-05-09T08:15:07.310Z,60.41
2019-05-09T08:15:54.889Z,60.50
2019-05-09T08:16:53.870Z,60.61
2019-05-09T08:17:53.852Z,60.07
2019-05-09T08:18:53.872Z,59.67
2019-05-09T08:19:53.819Z,59.27
2019-05-09T08:20:53.859Z,58.93
2019-05-09T08:21:53.824Z,58.53
2019-05-09T08:22:58.648Z,59.14
2019-05-09T08:23:54.777Z,58.80
2019-05-09T08:24:53.773Z,58.27
2019-05-09T08:25:53.754Z,58.07
2019-05-09T08:26:53.778Z,57.64
2019-05-09T08:27:53.750Z,56.93
2019-05-09T08:28:53.722Z,57.56
2019-05-09T08:29:53.716Z,57.36
2019-05-09T08:30:53.728Z,56.96
2019-05-09T08:31:53.709Z,56.90
2019-05-09T08:32:53.684Z,56.88
2019-05-09T08:33:53.690Z,56.55
2019-05-09T08:34:53.661Z,54.91
2019-05-09T08:35:53.656Z,54.10
2019-05-09T08:36:53.702Z,55.14
2019-05-09T08:37:53.621Z,55.04
2019-05-09T08:38:53.625Z,55.46
2019-05-09T08:39:53.606Z,55.66
2019-05-09T08:40:53.607Z,56.43
2019-05-09T08:41:53.600Z,57.26
2019-05-09T08:42:53.599Z,57.06
2019-05-09T08:43:53.602Z,58.40
2019-05-09T08:44:53.557Z,58.60
2019-05-09T08:45:53.546Z,57.06
2019-05-09T08:46:53.528Z,57.56
2019-05-09T08:47:53.547Z,57.36
2019-05-09T08:48:53.506Z,57.34
2019-05-09T08:49:53.553Z,56.81
2019-05-09T08:50:53.491Z,56.24
2019-05-09T08:52:08.982Z,55.01
2019-05-09T08:52:54.486Z,54.81
2019-05-09T08:53:53.459Z,55.34
2019-05-09T08:54:53.481Z,55.90
2019-05-09T08:55:53.486Z,56.65
2019-05-09T08:56:53.428Z,57.89
2019-05-09T08:57:53.419Z,58.40
2019-05-09T08:58:53.413Z,59.21
2019-05-09T08:59:53.400Z,58.20
2019-05-09T09:00:53.374Z,58.20
2019-05-09T09:02:11.257Z,58.23
2019-05-09T09:02:54.353Z,59.36
2019-05-09T09:03:53.365Z,60.61
2019-05-09T09:04:53.340Z,60.30
2019-05-09T09:05:53.322Z,60.38
2019-05-09T09:06:53.354Z,59.61
2019-05-09T09:07:53.305Z,57.41
2019-05-09T09:08:53.292Z,55.36
2019-05-09T09:09:53.302Z,56.07
2019-05-09T09:10:53.291Z,56.81
2019-05-09T09:11:53.257Z,57.16
2019-05-09T09:12:53.355Z,57.59
2019-05-09T09:13:53.236Z,58.91
2019-05-09T09:14:53.238Z,58.67
2019-05-09T09:16:10.423Z,58.80
2019-05-09T09:16:54.215Z,59.11
2019-05-09T09:17:53.221Z,58.58
2019-05-09T09:18:53.240Z,57.81
2019-05-09T09:19:53.180Z,56.68
2019-05-09T09:20:53.173Z,54.63
2019-05-09T09:21:53.184Z,55.19
2019-05-09T09:22:53.192Z,54.08
2019-05-09T09:23:53.174Z,52.84
2019-05-09T09:24:53.124Z,53.22
2019-05-09T09:25:53.128Z,53.12
2019-05-09T09:26:53.096Z,51.89
2019-05-09T09:27:53.111Z,51.99
2019-05-09T09:28:53.106Z,52.22
2019-05-09T09:29:53.063Z,52.44
2019-05-09T09:30:53.055Z,53.07
2019-05-09T09:31:53.063Z,53.45
2019-05-09T09:32:53.035Z,53.14
2019-05-09T09:33:53.035Z,52.44
2019-05-09T09:34:53.056Z,50.68
2019-05-09T09:35:53.042Z,51.09
2019-05-09T09:36:52.990Z,51.09
2019-05-09T09:37:53.002Z,49.83
2019-05-09T09:38:52.989Z,48.63
2019-05-09T09:39:53.058Z,48.60
2019-05-09T09:40:52.937Z,48.08
2019-05-09T09:41:52.934Z,48.00
2019-05-09T09:42:52.934Z,48.08
2019-05-09T09:43:52.933Z,48.05
2019-05-09T09:44:52.900Z,48.23
2019-05-09T09:46:09.979Z,46.74
2019-05-09T09:46:53.891Z,40.72
2019-05-09T09:47:52.882Z,38.11
2019-05-09T09:48:52.864Z,39.54
2019-05-09T09:49:55.104Z,40.46
2019-05-09T09:50:52.883Z,38.84
2019-05-09T09:51:59.436Z,40.14
2019-05-09T09:52:52.813Z,40.06
2019-05-09T09:53:52.791Z,39.96
2019-05-09T09:54:52.806Z,39.14
2019-05-09T09:55:52.802Z,41.66
2019-05-09T09:56:52.799Z,42.47
2019-05-09T09:57:52.777Z,43.01
2019-05-09T09:58:52.742Z,44.98
2019-05-09T09:59:52.748Z,46.77
2019-05-09T10:00:52.739Z,48.22
2019-05-09T10:01:52.744Z,50.18
2019-05-09T10:02:52.756Z,50.93
2019-05-09T10:03:52.720Z,51.97
2019-05-09T10:04:52.681Z,53.30
2019-05-09T10:05:53.513Z,53.55
2019-05-09T10:06:53.219Z,54.46
2019-05-09T10:07:52.651Z,55.29
2019-05-09T10:08:52.651Z,54.58
2019-05-09T10:09:52.631Z,55.41
2019-05-09T10:10:52.617Z,55.82
2019-05-09T10:11:52.605Z,54.63
2019-05-09T10:12:52.621Z,56.32
2019-05-09T10:13:52.780Z,55.49
2019-05-09T10:14:52.573Z,55.69
2019-05-09T10:15:52.625Z,55.69
2019-05-09T10:16:52.551Z,55.99
2019-05-09T10:17:52.546Z,56.23
2019-05-09T10:18:52.546Z,56.96
2019-05-09T10:19:52.552Z,57.29
2019-05-09T10:20:52.500Z,57.89
2019-05-09T10:21:52.491Z,58.83
2019-05-09T10:23:00.771Z,59.36
2019-05-09T10:23:57.471Z,59.36
2019-05-09T10:24:52.526Z,59.27
2019-05-09T10:25:52.498Z,59.59
2019-05-09T10:26:52.441Z,60.50
2019-05-09T10:27:52.431Z,60.13
2019-05-09T10:28:52.428Z,61.24
2019-05-09T10:29:52.426Z,61.98
2019-05-09T10:30:52.439Z,62.08
2019-05-09T10:31:52.380Z,62.31
2019-05-09T10:32:52.384Z,62.41
2019-05-09T10:33:52.361Z,62.21
2019-05-09T10:34:52.381Z,63.23
2019-05-09T10:35:52.372Z,64.04
2019-05-09T10:36:52.357Z,63.53
2019-05-09T10:37:52.316Z,63.63
2019-05-09T10:38:52.293Z,63.12
2019-05-09T10:39:52.332Z,63.73
2019-05-09T10:40:53.481Z,63.73
2019-05-09T10:41:52.303Z,63.23
2019-05-09T10:42:52.287Z,63.53
2019-05-09T10:43:52.253Z,63.23
2019-05-09T10:44:52.243Z,63.09
2019-05-09T10:45:52.228Z,62.56
2019-05-09T10:46:57.222Z,61.55
2019-05-09T10:47:53.204Z,60.61
2019-05-09T10:48:52.212Z,60.38
2019-05-09T10:49:52.182Z,59.54
2019-05-09T10:50:53.940Z,59.41
2019-05-09T10:51:52.171Z,58.27
2019-05-09T10:52:52.177Z,57.81
2019-05-09T10:53:52.135Z,56.15
2019-05-09T10:54:52.130Z,53.14
2019-05-09T10:55:52.110Z,49.88
2019-05-09T10:56:52.109Z,48.75
2019-05-09T10:57:53.048Z,47.43
2019-05-09T10:58:52.115Z,48.33
2019-05-09T10:59:52.075Z,46.81
2019-05-09T11:00:52.084Z,45.66
2019-05-09T11:01:52.057Z,42.69
2019-05-09T11:02:52.047Z,39.53
2019-05-09T11:03:52.033Z,38.99
2019-05-09T11:04:52.062Z,37.13
2019-05-09T11:05:52.015Z,35.77
2019-05-09T11:06:52.009Z,34.38
2019-05-09T11:07:51.995Z,35.80
2019-05-09T11:08:51.964Z,37.26
2019-05-09T11:09:51.959Z,37.56
2019-05-09T11:10:51.998Z,35.21
2019-05-09T11:11:51.934Z,35.50
2019-05-09T11:12:51.928Z,36.02
2019-05-09T11:13:51.922Z,36.62
2019-05-09T11:14:51.942Z,39.74
2019-05-09T11:15:51.990Z,43.77
2019-05-09T11:17:06.863Z,46.77
2019-05-09T11:17:52.887Z,48.43
2019-05-09T11:18:51.860Z,48.77
2019-05-09T11:19:51.899Z,49.90
2019-05-09T11:20:51.841Z,52.19
2019-05-09T11:21:51.846Z,52.09
2019-05-09T11:22:51.811Z,53.02
2019-05-09T11:23:51.819Z,53.42
2019-05-09T11:24:51.839Z,53.52
2019-05-09T11:25:51.802Z,53.55
2019-05-09T11:26:51.803Z,54.31
2019-05-09T11:28:06.820Z,55.21
2019-05-09T11:28:52.754Z,55.14
2019-05-09T11:29:51.751Z,56.05
2019-05-09T11:30:51.757Z,57.59
2019-05-09T11:31:51.748Z,60.55
2019-05-09T11:32:51.729Z,59.84
2019-05-09T11:33:51.722Z,65.43
2019-05-09T11:34:51.687Z,67.82
2019-05-09T11:35:51.691Z,74.04
2019-05-09T11:36:51.750Z,76.74
2019-05-09T11:37:51.653Z,81.13
2019-05-09T11:38:51.663Z,83.45
2019-05-09T11:39:51.653Z,87.99
2019-05-09T11:40:51.614Z,90.64
2019-05-09T11:41:51.630Z,93.28
2019-05-09T11:42:51.679Z,93.38
2019-05-09T11:43:51.596Z,93.63
2019-05-09T11:44:51.598Z,95.05
2019-05-09T11:45:51.619Z,94.85
2019-05-09T11:46:51.575Z,93.93
2019-05-09T11:47:51.589Z,95.25
2019-05-09T11:48:51.526Z,93.32
2019-05-09T11:49:51.540Z,93.93
2019-05-09T11:50:51.534Z,93.43
2019-05-09T11:51:51.500Z,92.82
2019-05-09T11:52:51.507Z,93.38
2019-05-09T11:53:51.691Z,92.06
2019-05-09T11:54:51.461Z,89.97
2019-05-09T11:55:51.469Z,90.78
2019-05-09T11:56:51.443Z,90.94
2019-05-09T11:57:51.462Z,91.05
2019-05-09T11:58:51.456Z,90.70
2019-05-09T11:59:51.412Z,89.94
2019-05-09T12:00:51.432Z,90.00
2019-05-09T12:01:51.401Z,89.96
2019-05-09T12:02:51.398Z,90.26
2019-05-09T12:03:52.332Z,89.96
2019-05-09T12:04:51.358Z,89.65
2019-05-09T12:05:51.337Z,88.13
2019-05-09T12:06:51.342Z,89.11
2019-05-09T12:07:51.340Z,88.46
2019-05-09T12:08:51.350Z,87.97
2019-05-09T12:09:51.307Z,85.25
2019-05-09T12:10:51.288Z,82.65
2019-05-09T12:11:51.278Z,81.65
2019-05-09T12:12:51.273Z,75.26
2019-05-09T12:13:51.270Z,71.26
2019-05-09T12:14:51.426Z,70.43
2019-05-09T12:15:51.244Z,68.35
2019-05-09T12:16:51.261Z,68.55
2019-05-09T12:17:58.177Z,68.15
2019-05-09T12:18:52.238Z,63.11
2019-05-09T12:19:51.218Z,68.24
2019-05-09T12:20:51.216Z,65.49
2019-05-09T12:21:51.183Z,66.80
2019-05-09T12:22:51.156Z,67.30
2019-05-09T12:23:51.140Z,62.81
2019-05-09T12:24:53.822Z,62.29
2019-05-09T12:25:51.185Z,60.62
2019-05-09T12:26:51.135Z,54.57
2019-05-09T12:27:51.171Z,49.79
2019-05-09T12:28:51.087Z,49.97
2019-05-09T12:29:51.132Z,48.63
2019-05-09T12:30:51.088Z,49.74
2019-05-09T12:31:51.065Z,50.15
2019-05-09T12:32:51.053Z,48.75
2019-05-09T12:33:51.044Z,46.59
2019-05-09T12:34:51.021Z,44.48
2019-05-09T12:35:51.050Z,43.51
2019-05-09T12:36:51.061Z,43.33
2019-05-09T12:37:51.018Z,42.83
2019-05-09T12:38:50.999Z,40.66
2019-05-09T12:39:50.988Z,41.55
2019-05-09T12:40:51.049Z,41.24
2019-05-09T12:41:51.082Z,41.22
2019-05-09T12:42:50.962Z,40.30
2019-05-09T12:43:50.926Z,39.70
2019-05-09T12:44:51.037Z,40.92
2019-05-09T12:45:50.906Z,42.11
2019-05-09T12:46:50.894Z,40.44
2019-05-09T12:48:06.053Z,41.63
2019-05-09T12:48:51.901Z,41.28
2019-05-09T12:49:50.897Z,43.21
2019-05-09T12:50:50.865Z,45.35
2019-05-09T12:51:50.917Z,45.97
2019-05-09T12:52:50.837Z,46.59